Time;durP1;ratioP1;P1;durP2;ratioP2;P2;SDS_P1;SDS_P2;PMS_P1;PMS_P2;Temp;Humidity;BMP_temperature;BMP_pressure;BME280_temperature;BME280_humidity;BME280_pressure;Samples;Min_cycle;Max_cycle;Signal;HPM_P1;HPM_P2
2023/12/08 00:00:23;;;;;;;;;;;32.70;93.00;;;;;;4972687;28;20442;-70
2023/12/08 00:02:50;;;;;;;;;;;32.90;93.10;;;;;;4973043;28;19910;-69
2023/12/08 00:05:16;;;;;;;;;;;33.10;93.70;;;;;;4973048;28;20298;-69
2023/12/08 00:07:43;;;;;;;;;;;33.30;94.10;;;;;;4973081;28;19917;-70
2023/12/08 00:10:10;;;;;;;;;;;33.40;93.10;;;;;;4972827;28;19917;-70
2023/12/08 00:12:37;;;;;;;;;;;33.60;93.50;;;;;;4972990;28;19916;-69
2023/12/08 00:15:04;;;;;;;;;;;33.80;93.50;;;;;;4972792;28;20303;-70
2023/12/08 00:17:31;;;;;;;;;;;34.10;92.80;;;;;;4972997;28;19917;-69
2023/12/08 00:19:57;;;;;;;;;;;34.30;92.20;;;;;;4972487;28;20013;-69
2023/12/08 00:22:24;;;;;;;;;;;34.40;91.80;;;;;;4972693;28;19922;-70
2023/12/08 00:24:51;;;;;;;;;;;34.40;91.30;;;;;;4972729;28;19914;-70
2023/12/08 00:27:17;;;;;;;;;;;34.50;91.20;;;;;;4971662;28;20270;-70
2023/12/08 00:29:44;;;;;;;;;;;34.40;90.30;;;;;;4972811;28;20332;-70
2023/12/08 00:32:11;;;;;;;;;;;34.20;90.30;;;;;;4972833;28;19921;-69
2023/12/08 00:34:37;;;;;;;;;;;33.90;91.30;;;;;;4972555;28;19911;-69
2023/12/08 00:37:04;;;;;;;;;;;33.80;93.30;;;;;;4972532;28;19972;-69
2023/12/08 00:39:31;;;;;;;;;;;33.80;94.10;;;;;;4972361;28;19957;-69
2023/12/08 00:41:57;;;;;;;;;;;33.90;93.90;;;;;;4972505;28;20401;-69
2023/12/08 00:44:24;;;;;;;;;;;34.00;94.40;;;;;;4972505;28;19910;-69
2023/12/08 00:46:50;;;;;;;;;;;34.20;94.00;;;;;;4972305;28;19955;-70
2023/12/08 00:49:17;;;;;;;;;;;34.30;94.20;;;;;;4972216;28;20013;-70
2023/12/08 00:51:44;;;;;;;;;;;34.30;93.90;;;;;;4972382;28;19906;-70
2023/12/08 00:54:10;;;;;;;;;;;34.30;94.10;;;;;;4972500;28;19912;-70
2023/12/08 00:56:37;;;;;;;;;;;34.10;94.20;;;;;;4972262;28;19967;-70
2023/12/08 00:59:03;;;;;;;;;;;33.90;94.40;;;;;;4972200;28;19910;-70
2023/12/08 01:01:30;;;;;;;;;;;33.80;94.90;;;;;;4972400;28;19910;-70
2023/12/08 01:04:00;;;;;;;;;;;33.80;94.90;;;;;;4970030;28;20212;-69
2023/12/08 01:06:27;;;;;;;;;;;33.70;95.20;;;;;;4972049;28;19911;-69
2023/12/08 01:08:53;;;;;;;;;;;33.80;94.80;;;;;;4972066;28;19910;-70
2023/12/08 01:11:20;;;;;;;;;;;33.90;94.70;;;;;;4972365;28;19910;-70
2023/12/08 01:13:47;;;;;;;;;;;34.00;94.50;;;;;;4972194;28;19918;-71
2023/12/08 01:16:14;;;;;;;;;;;34.10;94.20;;;;;;4972079;28;20363;-70
2023/12/08 01:18:40;;;;;;;;;;;34.10;93.60;;;;;;4971660;28;19910;-71
2023/12/08 01:21:07;;;;;;;;;;;34.10;93.50;;;;;;4971815;28;19929;-70
2023/12/08 01:23:34;;;;;;;;;;;34.30;93.70;;;;;;4971810;28;19914;-70
2023/12/08 01:26:00;;;;;;;;;;;34.40;93.50;;;;;;4972142;28;19910;-71
2023/12/08 01:28:27;;;;;;;;;;;34.60;93.40;;;;;;4971728;28;20393;-70
2023/12/08 01:30:53;;;;;;;;;;;34.60;93.00;;;;;;4971916;28;19918;-69
2023/12/08 01:33:20;;;;;;;;;;;34.40;93.20;;;;;;4971880;28;19910;-69
2023/12/08 01:35:47;;;;;;;;;;;34.50;93.10;;;;;;4971801;28;20347;-70
2023/12/08 01:38:13;;;;;;;;;;;34.40;92.90;;;;;;4971611;28;19914;-71
2023/12/08 01:40:41;;;;;;;;;;;34.40;92.90;;;;;;4971617;28;19919;-71
2023/12/08 01:43:11;;;;;;;;;;;34.40;93.20;;;;;;4971538;28;19917;-71
2023/12/08 01:45:38;;;;;;;;;;;34.50;93.30;;;;;;4971579;28;20044;-71
2023/12/08 01:48:05;;;;;;;;;;;34.60;93.60;;;;;;4971548;28;19918;-71
2023/12/08 01:50:33;;;;;;;;;;;34.70;93.10;;;;;;4974062;28;20111;-72
2023/12/08 01:52:59;;;;;;;;;;;34.80;93.00;;;;;;4969879;28;19989;-71
2023/12/08 01:55:28;;;;;;;;;;;34.80;92.70;;;;;;4970702;28;19922;-69
2023/12/08 01:57:55;;;;;;;;;;;34.90;93.40;;;;;;4971266;28;19913;-73
2023/12/08 02:00:23;;;;;;;;;;;35.00;93.00;;;;;;4970022;28;19922;-71
2023/12/08 02:02:49;;;;;;;;;;;35.10;92.90;;;;;;4969452;28;20337;-69
2023/12/08 02:05:18;;;;;;;;;;;35.30;92.70;;;;;;4970723;28;19968;-71
2023/12/08 02:07:45;;;;;;;;;;;35.20;92.20;;;;;;4959297;28;19910;-72
2023/12/08 02:10:12;;;;;;;;;;;35.00;92.40;;;;;;4962509;28;19914;-69
2023/12/08 02:12:39;;;;;;;;;;;35.00;92.40;;;;;;4968740;28;19949;-71
2023/12/08 02:15:06;;;;;;;;;;;34.80;92.50;;;;;;4969419;28;19910;-70
2023/12/08 02:17:39;;;;;;;;;;;34.70;92.60;;;;;;4969769;28;19914;-70
2023/12/08 02:20:09;;;;;;;;;;;34.80;92.40;;;;;;4969576;28;19929;-70
2023/12/08 02:22:36;;;;;;;;;;;34.40;92.80;;;;;;4970317;28;20375;-70
2023/12/08 02:25:03;;;;;;;;;;;34.50;92.80;;;;;;4970492;28;19922;-70
2023/12/08 02:27:30;;;;;;;;;;;34.50;92.70;;;;;;4971165;28;19911;-70
2023/12/08 02:29:57;;;;;;;;;;;34.30;93.00;;;;;;4969119;28;19968;-70
2023/12/08 02:32:34;;;;;;;;;;;34.10;93.10;;;;;;4970258;28;19922;-69
2023/12/08 02:35:03;;;;;;;;;;;34.10;93.50;;;;;;4970760;28;20400;-69
2023/12/08 02:37:32;;;;;;;;;;;34.00;93.90;;;;;;4970725;28;20252;-69
2023/12/08 02:39:59;;;;;;;;;;;33.90;93.90;;;;;;4970139;28;19918;-70
2023/12/08 02:42:26;;;;;;;;;;;33.70;94.10;;;;;;4970606;28;19953;-70
2023/12/08 02:44:53;;;;;;;;;;;33.70;94.60;;;;;;4970735;28;19968;-70
2023/12/08 02:47:20;;;;;;;;;;;33.80;94.20;;;;;;4970544;28;19910;-70
2023/12/08 02:49:47;;;;;;;;;;;33.70;94.30;;;;;;4970858;28;19933;-70
2023/12/08 02:52:14;;;;;;;;;;;33.80;94.50;;;;;;4970500;28;19917;-69
2023/12/08 02:54:41;;;;;;;;;;;34.20;94.60;;;;;;4970081;28;19914;-70
2023/12/08 02:57:08;;;;;;;;;;;34.30;93.50;;;;;;4970747;28;19910;-70
2023/12/08 02:59:35;;;;;;;;;;;34.40;94.00;;;;;;4970344;28;20317;-70
2023/12/08 03:02:02;;;;;;;;;;;34.80;93.70;;;;;;4970536;28;19917;-70
2023/12/08 03:04:29;;;;;;;;;;;35.60;93.00;;;;;;4970255;28;19914;-70
2023/12/08 03:06:56;;;;;;;;;;;36.40;92.00;;;;;;4970709;28;19910;-69
2023/12/08 03:09:23;;;;;;;;;;;36.70;91.90;;;;;;4970586;28;19910;-70
2023/12/08 03:11:50;;;;;;;;;;;37.10;91.50;;;;;;4969966;28;19917;-70
2023/12/08 03:14:17;;;;;;;;;;;37.30;91.00;;;;;;4969837;28;19918;-70
2023/12/08 03:16:46;;;;;;;;;;;37.30;90.80;;;;;;4970378;28;19914;-70
2023/12/08 03:19:16;;;;;;;;;;;37.30;91.10;;;;;;4969989;28;20013;-69
2023/12/08 03:21:43;;;;;;;;;;;37.20;91.00;;;;;;4973506;28;19922;-70
2023/12/08 03:24:10;;;;;;;;;;;37.50;90.60;;;;;;4973351;28;20329;-70
2023/12/08 03:26:37;;;;;;;;;;;37.70;90.40;;;;;;4973531;28;19914;-70
2023/12/08 03:29:03;;;;;;;;;;;37.90;90.50;;;;;;4973495;28;20386;-70
2023/12/08 03:31:32;;;;;;;;;;;38.10;89.90;;;;;;4973415;28;19910;-70
2023/12/08 03:33:58;;;;;;;;;;;38.60;88.10;;;;;;4973323;28;19953;-71
2023/12/08 03:36:25;;;;;;;;;;;39.30;87.20;;;;;;4973230;28;19910;-71
2023/12/08 03:38:52;;;;;;;;;;;39.50;86.20;;;;;;4973032;28;19979;-71
2023/12/08 03:41:19;;;;;;;;;;;40.10;85.20;;;;;;4971900;28;19966;-71
2023/12/08 03:43:46;;;;;;;;;;;40.10;84.20;;;;;;4973290;28;20279;-71
2023/12/08 03:46:12;;;;;;;;;;;40.40;84.40;;;;;;4973110;28;19925;-71
2023/12/08 03:48:39;;;;;;;;;;;40.30;84.40;;;;;;4973005;28;19910;-71
2023/12/08 03:51:06;;;;;;;;;;;40.50;83.80;;;;;;4973059;28;19997;-71
2023/12/08 03:53:33;;;;;;;;;;;40.80;82.70;;;;;;4972760;28;20420;-71
2023/12/08 03:56:00;;;;;;;;;;;40.60;82.80;;;;;;4973193;28;19914;-72
2023/12/08 03:58:27;;;;;;;;;;;40.90;81.60;;;;;;4973002;28;19972;-71
2023/12/08 04:00:54;;;;;;;;;;;40.60;81.90;;;;;;4972770;28;19975;-71
2023/12/08 04:03:22;;;;;;;;;;;40.30;81.50;;;;;;4972761;28;19922;-71
2023/12/08 04:05:48;;;;;;;;;;;39.40;84.10;;;;;;4972860;28;20355;-71
2023/12/08 04:08:15;;;;;;;;;;;39.40;84.40;;;;;;4972483;28;19968;-70
2023/12/08 04:10:42;;;;;;;;;;;39.50;82.90;;;;;;4972907;28;19949;-71
2023/12/08 04:13:08;;;;;;;;;;;40.10;81.60;;;;;;4972751;28;19949;-72
2023/12/08 04:15:35;;;;;;;;;;;40.20;82.50;;;;;;4973121;28;20359;-71
2023/12/08 04:18:02;;;;;;;;;;;40.10;82.30;;;;;;4972835;28;20256;-72
2023/12/08 04:20:29;;;;;;;;;;;40.30;83.00;;;;;;4972028;28;19923;-71
2023/12/08 04:22:55;;;;;;;;;;;40.60;81.40;;;;;;4971512;28;19918;-71
2023/12/08 04:25:22;;;;;;;;;;;40.20;81.60;;;;;;4971630;28;19918;-72
2023/12/08 04:27:49;;;;;;;;;;;39.30;82.70;;;;;;4968077;28;19921;-72
2023/12/08 04:30:15;;;;;;;;;;;39.00;83.60;;;;;;4961732;28;19960;-71
2023/12/08 04:32:42;;;;;;;;;;;39.50;82.90;;;;;;4969943;28;20389;-71
2023/12/08 04:35:09;;;;;;;;;;;39.90;81.90;;;;;;5001370;28;19920;-71
2023/12/08 04:37:36;;;;;;;;;;;40.50;81.50;;;;;;4984140;28;19926;-73
2023/12/08 04:40:03;;;;;;;;;;;41.00;80.70;;;;;;4970104;28;19944;-72
2023/12/08 04:42:29;;;;;;;;;;;40.80;79.40;;;;;;4970788;28;20430;-70
2023/12/08 04:44:56;;;;;;;;;;;40.60;80.20;;;;;;4969524;28;19966;-71
2023/12/08 04:47:23;;;;;;;;;;;40.50;79.70;;;;;;4966273;28;19914;-70
2023/12/08 04:49:49;;;;;;;;;;;40.10;80.90;;;;;;4952148;28;20001;-71
2023/12/08 04:52:16;;;;;;;;;;;40.40;80.30;;;;;;5051381;28;19909;-70
2023/12/08 04:54:43;;;;;;;;;;;39.60;81.20;;;;;;4970847;28;19919;-70
2023/12/08 04:57:09;;;;;;;;;;;39.90;81.20;;;;;;4952699;28;19942;-71
2023/12/08 04:59:37;;;;;;;;;;;40.00;81.20;;;;;;4967521;28;19918;-70
2023/12/08 05:02:04;;;;;;;;;;;40.20;80.50;;;;;;4966634;28;19964;-70
2023/12/08 05:04:31;;;;;;;;;;;40.00;80.20;;;;;;4953987;28;19914;-71
2023/12/08 05:06:57;;;;;;;;;;;39.50;80.50;;;;;;4952422;28;20287;-69
2023/12/08 05:09:24;;;;;;;;;;;39.30;80.50;;;;;;4965257;28;19914;-69
2023/12/08 05:11:51;;;;;;;;;;;39.20;80.90;;;;;;4971121;28;19917;-71
2023/12/08 05:14:17;;;;;;;;;;;39.00;81.10;;;;;;4968795;28;20367;-71
2023/12/08 05:16:44;;;;;;;;;;;39.10;80.70;;;;;;4971445;28;19933;-72
2023/12/08 05:19:10;;;;;;;;;;;38.90;82.20;;;;;;4978527;28;19917;-70
2023/12/08 05:21:37;;;;;;;;;;;38.80;81.80;;;;;;4984531;28;19975;-72
2023/12/08 05:24:04;;;;;;;;;;;38.40;82.20;;;;;;4970962;28;19914;-72
2023/12/08 05:26:31;;;;;;;;;;;37.70;83.50;;;;;;4971234;28;19910;-70
2023/12/08 05:28:57;;;;;;;;;;;37.10;84.00;;;;;;4971261;28;20447;-73
2023/12/08 05:31:24;;;;;;;;;;;36.70;84.60;;;;;;4979503;28;19909;-70
2023/12/08 05:33:51;;;;;;;;;;;36.70;83.90;;;;;;4967547;28;19914;-72
2023/12/08 05:36:17;;;;;;;;;;;36.00;84.20;;;;;;4971035;28;19910;-71
2023/12/08 05:38:44;;;;;;;;;;;35.10;85.90;;;;;;4971159;28;19914;-71
2023/12/08 05:41:11;;;;;;;;;;;34.40;87.80;;;;;;4970914;28;20379;-73
2023/12/08 05:43:38;;;;;;;;;;;33.90;88.20;;;;;;4969679;28;19914;-72
2023/12/08 05:46:04;;;;;;;;;;;33.30;89.60;;;;;;4966248;28;20386;-69
2023/12/08 05:48:31;;;;;;;;;;;33.00;90.00;;;;;;4969056;28;19961;-72
2023/12/08 05:50:58;;;;;;;;;;;32.70;90.40;;;;;;4969615;28;20401;-73
2023/12/08 05:53:25;;;;;;;;;;;32.80;90.60;;;;;;4965519;28;19919;-72
2023/12/08 05:55:51;;;;;;;;;;;32.80;90.60;;;;;;4964236;28;19925;-70
2023/12/08 05:58:18;;;;;;;;;;;32.90;90.70;;;;;;4971252;28;19914;-73
2023/12/08 06:00:45;;;;;;;;;;;33.00;91.00;;;;;;4970768;28;19958;-71
2023/12/08 06:03:12;;;;;;;;;;;32.90;91.10;;;;;;4967739;28;20331;-72
2023/12/08 06:05:39;;;;;;;;;;;32.80;91.40;;;;;;4955633;28;19914;-72
2023/12/08 06:08:05;;;;;;;;;;;32.90;91.40;;;;;;4965619;28;19915;-71
2023/12/08 06:10:32;;;;;;;;;;;32.30;91.90;;;;;;4969461;28;19973;-71
2023/12/08 06:12:59;;;;;;;;;;;32.00;92.60;;;;;;4967227;28;20001;-72
2023/12/08 06:15:25;;;;;;;;;;;31.80;93.20;;;;;;4957554;28;19918;-73
2023/12/08 06:17:52;;;;;;;;;;;31.80;93.60;;;;;;4969930;28;19957;-73
2023/12/08 06:20:18;;;;;;;;;;;32.00;93.60;;;;;;4967076;28;19936;-74
2023/12/08 06:22:45;;;;;;;;;;;31.90;93.50;;;;;;4969982;28;19969;-71
2023/12/08 06:25:12;;;;;;;;;;;31.80;93.70;;;;;;4970270;28;19910;-73
2023/12/08 06:27:38;;;;;;;;;;;31.70;94.20;;;;;;4969899;28;19914;-71
2023/12/08 06:30:11;;;;;;;;;;;31.90;94.60;;;;;;4969718;28;20576;-72
2023/12/08 06:32:37;;;;;;;;;;;32.00;94.20;;;;;;4967930;28;19979;-72
2023/12/08 06:35:04;;;;;;;;;;;32.00;94.00;;;;;;4950003;28;19921;-73
2023/12/08 06:37:31;;;;;;;;;;;31.80;94.50;;;;;;4953261;28;20332;-77
2023/12/08 06:39:57;;;;;;;;;;;31.70;94.90;;;;;;4967076;28;19918;-72
2023/12/08 06:42:24;;;;;;;;;;;31.60;95.00;;;;;;4969954;28;19921;-72
2023/12/08 06:44:51;;;;;;;;;;;31.10;95.70;;;;;;4965880;28;19914;-72
2023/12/08 06:47:17;;;;;;;;;;;30.80;96.20;;;;;;4960841;28;19930;-74
2023/12/08 06:49:44;;;;;;;;;;;30.90;96.30;;;;;;4964955;28;19910;-73
2023/12/08 06:52:10;;;;;;;;;;;31.00;96.20;;;;;;4959588;28;19910;-71
2023/12/08 06:54:37;;;;;;;;;;;31.00;95.80;;;;;;4961249;28;20375;-72
2023/12/08 06:57:04;;;;;;;;;;;30.80;96.00;;;;;;4968532;28;19922;-73
2023/12/08 06:59:30;;;;;;;;;;;30.50;96.60;;;;;;4965221;28;19914;-72
2023/12/08 07:01:57;;;;;;;;;;;30.30;97.00;;;;;;4973388;28;19911;-75
2023/12/08 07:04:24;;;;;;;;;;;30.10;97.20;;;;;;4972792;28;19914;-73
2023/12/08 07:06:50;;;;;;;;;;;29.90;97.60;;;;;;4988931;28;20443;-73
2023/12/08 07:09:17;;;;;;;;;;;29.60;98.00;;;;;;4962945;28;19965;-71
2023/12/08 07:11:43;;;;;;;;;;;29.40;98.50;;;;;;4968545;28;19918;-71
2023/12/08 07:14:10;;;;;;;;;;;29.50;98.70;;;;;;4987141;28;19925;-73
2023/12/08 07:16:37;;;;;;;;;;;29.50;98.50;;;;;;4972754;28;19918;-74
2023/12/08 07:19:07;;;;;;;;;;;29.40;98.80;;;;;;4964166;28;19921;-70
2023/12/08 07:21:35;;;;;;;;;;;29.40;98.80;;;;;;4966313;28;20013;-73
2023/12/08 07:24:04;;;;;;;;;;;29.30;98.90;;;;;;4971944;28;19922;-72
2023/12/08 07:26:31;;;;;;;;;;;29.30;98.80;;;;;;4971464;28;19914;-72
2023/12/08 07:28:58;;;;;;;;;;;29.40;98.30;;;;;;4960210;28;19919;-73
2023/12/08 07:31:24;;;;;;;;;;;29.50;97.80;;;;;;4964773;28;19968;-71
2023/12/08 07:33:51;;;;;;;;;;;29.60;97.30;;;;;;4972442;28;19928;-73
2023/12/08 07:36:18;;;;;;;;;;;29.50;97.30;;;;;;4972697;28;19970;-73
2023/12/08 07:38:44;;;;;;;;;;;29.40;97.60;;;;;;4968013;28;19946;-72
2023/12/08 07:41:11;;;;;;;;;;;29.30;97.30;;;;;;4962471;28;19968;-73
2023/12/08 07:43:38;;;;;;;;;;;29.30;97.40;;;;;;4972841;28;19957;-73
2023/12/08 07:46:04;;;;;;;;;;;29.10;97.40;;;;;;4972400;28;19911;-71
2023/12/08 07:48:31;;;;;;;;;;;29.00;97.70;;;;;;4968559;28;20296;-73
2023/12/08 07:50:57;;;;;;;;;;;28.90;97.60;;;;;;4962902;28;19914;-70
2023/12/08 07:53:24;;;;;;;;;;;28.80;97.80;;;;;;4977912;28;20322;-71
2023/12/08 07:55:51;;;;;;;;;;;28.80;98.30;;;;;;4971962;28;19922;-73
2023/12/08 07:58:17;;;;;;;;;;;28.60;98.60;;;;;;4965071;28;19915;-70
2023/12/08 08:00:44;;;;;;;;;;;28.40;99.20;;;;;;4964282;28;19926;-72
2023/12/08 08:03:10;;;;;;;;;;;28.20;99.70;;;;;;4971970;28;20005;-76
2023/12/08 08:05:37;;;;;;;;;;;28.00;99.90;;;;;;4963276;28;20040;-72
2023/12/08 08:08:04;;;;;;;;;;;27.90;99.90;;;;;;4975725;28;20309;-72
2023/12/08 08:10:31;;;;;;;;;;;27.90;99.90;;;;;;4964296;28;19911;-71
2023/12/08 08:12:58;;;;;;;;;;;27.80;99.90;;;;;;4962492;28;19929;-75
2023/12/08 08:15:24;;;;;;;;;;;27.80;99.90;;;;;;4963359;28;20326;-73
2023/12/08 08:17:51;;;;;;;;;;;27.70;99.90;;;;;;4963616;28;19915;-72
2023/12/08 08:20:18;;;;;;;;;;;27.80;99.90;;;;;;4952956;28;19976;-72
2023/12/08 08:22:45;;;;;;;;;;;27.70;99.90;;;;;;4965666;28;19926;-70
2023/12/08 08:25:12;;;;;;;;;;;27.70;99.90;;;;;;4965276;28;19930;-70
2023/12/08 08:27:39;;;;;;;;;;;27.70;99.90;;;;;;4968384;28;19922;-70
2023/12/08 08:30:06;;;;;;;;;;;27.60;99.90;;;;;;4962556;28;19914;-70
2023/12/08 08:32:33;;;;;;;;;;;27.50;99.90;;;;;;4962041;28;19910;-73
2023/12/08 08:34:59;;;;;;;;;;;27.50;99.90;;;;;;4966451;28;19918;-70
2023/12/08 08:37:26;;;;;;;;;;;27.40;99.90;;;;;;4962953;28;19911;-71
2023/12/08 08:39:53;;;;;;;;;;;27.40;99.90;;;;;;4965106;28;19945;-70
2023/12/08 08:42:20;;;;;;;;;;;27.30;99.90;;;;;;4963750;28;19911;-71
2023/12/08 08:44:46;;;;;;;;;;;27.30;99.90;;;;;;4960311;28;19930;-71
2023/12/08 08:47:13;;;;;;;;;;;27.20;99.90;;;;;;4972887;28;19911;-74
2023/12/08 08:49:40;;;;;;;;;;;27.30;99.90;;;;;;4961729;28;19918;-73
2023/12/08 08:52:06;;;;;;;;;;;27.20;99.90;;;;;;4966917;28;20057;-72
2023/12/08 08:54:33;;;;;;;;;;;27.20;99.90;;;;;;4962413;28;20283;-70
2023/12/08 08:57:00;;;;;;;;;;;27.10;99.90;;;;;;4963780;28;19967;-71
2023/12/08 08:59:26;;;;;;;;;;;27.10;99.90;;;;;;4960910;28;20485;-73
2023/12/08 09:01:53;;;;;;;;;;;27.10;99.90;;;;;;4964371;28;19953;-72
2023/12/08 09:04:19;;;;;;;;;;;27.10;99.90;;;;;;4960732;28;19911;-70
2023/12/08 09:06:46;;;;;;;;;;;27.00;99.90;;;;;;4961788;28;19914;-71
2023/12/08 09:09:13;;;;;;;;;;;27.00;99.90;;;;;;4962416;28;19914;-70
2023/12/08 09:11:39;;;;;;;;;;;26.90;99.90;;;;;;4962661;28;20508;-71
2023/12/08 09:14:06;;;;;;;;;;;26.80;99.90;;;;;;4967917;28;19914;-70
2023/12/08 09:16:33;;;;;;;;;;;26.80;99.90;;;;;;4970911;28;19915;-70
2023/12/08 09:19:00;;;;;;;;;;;26.80;99.90;;;;;;4971066;28;19910;-70
2023/12/08 09:21:27;;;;;;;;;;;26.80;99.90;;;;;;4959829;28;20481;-71
2023/12/08 09:23:54;;;;;;;;;;;26.80;99.90;;;;;;4968759;28;19976;-72
2023/12/08 09:26:21;;;;;;;;;;;26.70;99.90;;;;;;4955757;28;19999;-71
2023/12/08 09:28:47;;;;;;;;;;;26.60;99.90;;;;;;4962999;28;19914;-71
2023/12/08 09:31:14;;;;;;;;;;;26.60;99.90;;;;;;4970371;28;19916;-69
2023/12/08 09:33:44;;;;;;;;;;;26.50;99.90;;;;;;4969567;28;19922;-67
2023/12/08 09:36:10;;;;;;;;;;;26.50;99.90;;;;;;4970504;28;19918;-71
2023/12/08 09:38:37;;;;;;;;;;;26.50;99.90;;;;;;4970983;28;19914;-71
2023/12/08 09:41:04;;;;;;;;;;;26.50;99.90;;;;;;4970818;28;19923;-71
2023/12/08 09:43:49;;;;;;;;;;;26.50;99.90;;;;;;4961280;28;20005;-71
2023/12/08 09:46:16;;;;;;;;;;;26.50;99.90;;;;;;4970685;28;19910;-71
2023/12/08 09:48:45;;;;;;;;;;;26.50;99.90;;;;;;4969809;28;19924;-70
2023/12/08 09:51:14;;;;;;;;;;;26.50;99.90;;;;;;4970344;28;20016;-71
2023/12/08 09:53:42;;;;;;;;;;;26.40;99.90;;;;;;4960494;28;20317;-71
2023/12/08 09:56:08;;;;;;;;;;;26.40;99.90;;;;;;4957632;28;19914;-72
2023/12/08 09:58:36;;;;;;;;;;;26.50;99.90;;;;;;4954596;28;19921;-71
2023/12/08 10:01:05;;;;;;;;;;;26.40;99.90;;;;;;4970044;28;19926;-72
2023/12/08 10:03:31;;;;;;;;;;;26.40;99.90;;;;;;4970040;28;19921;-69
2023/12/08 10:05:58;;;;;;;;;;;26.30;99.90;;;;;;4970083;28;19914;-71
2023/12/08 10:08:25;;;;;;;;;;;26.30;99.90;;;;;;4970488;28;19961;-71
2023/12/08 10:10:52;;;;;;;;;;;26.40;99.90;;;;;;4970215;28;19919;-70
2023/12/08 10:13:18;;;;;;;;;;;26.40;99.90;;;;;;4966999;28;19922;-71
2023/12/08 10:15:45;;;;;;;;;;;26.40;99.90;;;;;;4964838;28;19946;-73
2023/12/08 10:18:25;;;;;;;;;;;26.40;99.90;;;;;;4961023;28;19915;-69
2023/12/08 10:20:52;;;;;;;;;;;26.40;99.90;;;;;;4961304;28;19926;-70
2023/12/08 10:23:20;;;;;;;;;;;26.40;99.90;;;;;;4962812;28;19917;-72
2023/12/08 10:25:47;;;;;;;;;;;26.50;99.90;;;;;;4962499;28;19914;-73
2023/12/08 10:28:14;;;;;;;;;;;26.50;99.90;;;;;;4963461;28;20217;-73
2023/12/08 10:30:45;;;;;;;;;;;26.50;99.90;;;;;;4962482;28;20383;-71
2023/12/08 10:33:21;;;;;;;;;;;26.50;99.90;;;;;;4967438;28;19918;-72
2023/12/08 10:35:48;;;;;;;;;;;26.50;99.90;;;;;;4964987;28;20577;-71
2023/12/08 10:38:15;;;;;;;;;;;26.50;99.90;;;;;;4964322;28;19918;-71
2023/12/08 10:40:49;;;;;;;;;;;26.50;99.90;;;;;;4964158;28;19953;-71
2023/12/08 10:43:25;;;;;;;;;;;26.50;99.90;;;;;;4967759;28;19910;-72
2023/12/08 10:45:53;;;;;;;;;;;26.50;99.90;;;;;;4964232;28;19922;-70
2023/12/08 10:48:23;;;;;;;;;;;26.50;99.90;;;;;;4963684;28;19922;-72
2023/12/08 10:50:53;;;;;;;;;;;26.50;99.90;;;;;;4964646;28;19997;-70
2023/12/08 10:53:20;;;;;;;;;;;26.50;99.90;;;;;;4965166;28;19914;-73
2023/12/08 10:55:52;;;;;;;;;;;26.40;99.90;;;;;;4964658;28;20004;-73
2023/12/08 10:58:20;;;;;;;;;;;26.30;99.90;;;;;;4963396;28;20000;-70
2023/12/08 11:00:49;;;;;;;;;;;26.30;99.90;;;;;;4967774;28;19989;-70
2023/12/08 11:03:19;;;;;;;;;;;26.20;99.90;;;;;;4973012;28;20056;-70
2023/12/08 11:05:49;;;;;;;;;;;26.10;99.90;;;;;;4973050;28;20001;-70
2023/12/08 11:08:19;;;;;;;;;;;26.10;99.90;;;;;;4973045;28;19998;-69
2023/12/08 11:10:52;;;;;;;;;;;26.10;99.90;;;;;;4972903;28;19976;-71
2023/12/08 11:13:28;;;;;;;;;;;26.10;99.90;;;;;;4971173;28;19964;-70
2023/12/08 11:16:17;;;;;;;;;;;26.20;99.90;;;;;;4965392;28;19915;-71
2023/12/08 11:18:44;;;;;;;;;;;26.20;99.90;;;;;;4954023;28;19914;-71
2023/12/08 11:21:12;;;;;;;;;;;26.20;99.90;;;;;;4954278;28;20014;-70
2023/12/08 11:23:41;;;;;;;;;;;26.20;99.90;;;;;;4972958;28;19914;-69
2023/12/08 11:26:26;;;;;;;;;;;26.20;99.90;;;;;;4965501;28;19911;-70
2023/12/08 11:29:02;;;;;;;;;;;26.10;99.90;;;;;;4963566;28;20278;-70
2023/12/08 11:31:42;;;;;;;;;;;26.10;99.90;;;;;;4970651;28;19910;-71
2023/12/08 11:34:27;;;;;;;;;;;26.00;99.90;;;;;;5015146;28;19979;-70
2023/12/08 11:36:55;;;;;;;;;;;26.00;99.90;;;;;;5023218;28;19964;-70
2023/12/08 11:39:31;;;;;;;;;;;26.00;99.90;;;;;;5073478;28;19920;-71
2023/12/08 11:41:58;;;;;;;;;;;25.90;99.90;;;;;;5049191;28;19918;-70
2023/12/08 11:44:25;;;;;;;;;;;25.90;99.90;;;;;;4972963;28;19914;-71
2023/12/08 11:46:52;;;;;;;;;;;25.90;99.90;;;;;;4972980;28;19993;-71
2023/12/08 11:49:19;;;;;;;;;;;25.90;99.90;;;;;;4972740;28;19910;-70
2023/12/08 11:52:05;;;;;;;;;;;25.90;99.90;;;;;;4972268;28;19910;-70
2023/12/08 11:54:49;;;;;;;;;;;25.90;99.90;;;;;;4957139;28;19921;-70
2023/12/08 11:57:18;;;;;;;;;;;25.90;99.90;;;;;;4953523;28;19998;-71
2023/12/08 11:59:45;;;;;;;;;;;25.80;99.90;;;;;;4953199;28;20840;-70
2023/12/08 12:02:12;;;;;;;;;;;25.80;99.90;;;;;;4953607;28;19915;-72
2023/12/08 12:04:39;;;;;;;;;;;25.90;99.90;;;;;;4962236;28;19980;-70
2023/12/08 12:07:08;;;;;;;;;;;25.90;99.90;;;;;;4972480;28;19914;-71
2023/12/08 12:09:34;;;;;;;;;;;25.80;99.90;;;;;;4972461;28;19910;-72
2023/12/08 12:12:09;;;;;;;;;;;25.90;99.90;;;;;;4972403;28;20291;-73
2023/12/08 12:14:42;;;;;;;;;;;25.80;99.90;;;;;;4972321;28;20068;-68
2023/12/08 12:17:10;;;;;;;;;;;25.80;99.90;;;;;;4972132;28;19956;-71
2023/12/08 12:19:37;;;;;;;;;;;25.80;99.90;;;;;;4972219;28;19921;-72
2023/12/08 12:22:04;;;;;;;;;;;25.80;99.90;;;;;;4971973;28;19926;-72
2023/12/08 12:24:31;;;;;;;;;;;25.80;99.90;;;;;;4970124;28;19975;-70
2023/12/08 12:26:58;;;;;;;;;;;25.90;99.90;;;;;;4972154;28;19910;-71
2023/12/08 12:29:26;;;;;;;;;;;25.80;99.90;;;;;;4959315;28;20257;-72
2023/12/08 12:31:52;;;;;;;;;;;25.80;99.90;;;;;;4968059;28;20252;-71
2023/12/08 12:34:19;;;;;;;;;;;25.80;99.90;;;;;;4981432;28;19918;-71
2023/12/08 12:36:45;;;;;;;;;;;25.80;99.90;;;;;;5034269;28;20485;-71
2023/12/08 12:39:12;;;;;;;;;;;25.80;99.90;;;;;;4960979;28;19925;-70
2023/12/08 12:41:38;;;;;;;;;;;25.80;99.90;;;;;;4952800;28;20372;-71
2023/12/08 12:44:06;;;;;;;;;;;25.80;99.90;;;;;;4971738;28;19914;-69
2023/12/08 12:46:32;;;;;;;;;;;25.80;99.90;;;;;;4971652;28;20294;-70
2023/12/08 12:48:59;;;;;;;;;;;25.80;99.90;;;;;;4971760;28;19910;-69
2023/12/08 12:51:33;;;;;;;;;;;25.80;99.90;;;;;;4971610;28;19921;-71
2023/12/08 12:53:59;;;;;;;;;;;25.70;99.90;;;;;;4971565;28;20397;-70
2023/12/08 12:56:26;;;;;;;;;;;25.70;99.90;;;;;;4971887;28;19911;-72
2023/12/08 12:59:09;;;;;;;;;;;25.70;99.90;;;;;;4971838;28;19911;-71
2023/12/08 13:01:36;;;;;;;;;;;25.70;99.90;;;;;;4971802;28;20027;-72
2023/12/08 13:04:03;;;;;;;;;;;25.70;99.90;;;;;;4972055;28;20014;-71
2023/12/08 13:06:32;;;;;;;;;;;25.70;99.90;;;;;;4982257;28;19910;-71
2023/12/08 13:08:59;;;;;;;;;;;25.80;99.90;;;;;;5073541;28;20622;-71
2023/12/08 13:11:27;;;;;;;;;;;25.80;99.90;;;;;;5072398;28;19999;-71
2023/12/08 13:13:56;;;;;;;;;;;25.70;99.90;;;;;;4971678;28;19911;-70
2023/12/08 13:16:25;;;;;;;;;;;25.70;99.90;;;;;;4971529;28;19914;-69
2023/12/08 13:18:52;;;;;;;;;;;25.70;99.90;;;;;;4971854;28;19910;-71
2023/12/08 13:21:19;;;;;;;;;;;25.70;99.90;;;;;;4971848;28;19923;-71
2023/12/08 13:23:46;;;;;;;;;;;25.70;99.90;;;;;;4970171;28;20367;-71
2023/12/08 13:26:13;;;;;;;;;;;25.80;99.90;;;;;;4971677;28;19993;-72
2023/12/08 13:28:39;;;;;;;;;;;25.80;99.90;;;;;;4954338;28;20375;-71
2023/12/08 13:31:06;;;;;;;;;;;25.80;99.90;;;;;;4951813;28;19922;-71
2023/12/08 13:33:33;;;;;;;;;;;25.80;99.90;;;;;;4952636;28;19910;-71
2023/12/08 13:35:59;;;;;;;;;;;25.80;99.90;;;;;;4962983;28;20390;-69
2023/12/08 13:38:26;;;;;;;;;;;25.80;99.90;;;;;;4971086;28;19910;-70
2023/12/08 13:40:53;;;;;;;;;;;25.80;99.90;;;;;;4971009;28;19918;-70
2023/12/08 13:43:20;;;;;;;;;;;25.80;99.90;;;;;;4971045;28;19976;-69
2023/12/08 13:45:47;;;;;;;;;;;25.80;99.90;;;;;;4971246;28;20005;-68
2023/12/08 13:48:16;;;;;;;;;;;25.80;99.90;;;;;;4971219;28;20398;-71
2023/12/08 13:50:42;;;;;;;;;;;25.80;99.90;;;;;;4970856;28;20013;-71
2023/12/08 13:53:09;;;;;;;;;;;25.90;99.90;;;;;;4971085;28;19910;-70
2023/12/08 13:55:36;;;;;;;;;;;25.90;99.90;;;;;;4971437;28;19910;-70
2023/12/08 13:58:03;;;;;;;;;;;25.90;99.90;;;;;;4971008;28;19914;-71
2023/12/08 14:00:29;;;;;;;;;;;25.90;99.90;;;;;;4970569;28;20256;-69
2023/12/08 14:02:56;;;;;;;;;;;25.90;99.90;;;;;;4970681;28;19922;-69
2023/12/08 14:05:23;;;;;;;;;;;25.90;99.90;;;;;;4970153;28;20313;-70
2023/12/08 14:07:52;;;;;;;;;;;26.00;99.90;;;;;;4971051;28;19917;-69
2023/12/08 14:10:18;;;;;;;;;;;26.00;99.90;;;;;;4971164;28;19914;-70
2023/12/08 14:12:48;;;;;;;;;;;25.90;99.90;;;;;;4971105;28;19914;-69
2023/12/08 14:15:15;;;;;;;;;;;26.00;99.90;;;;;;4970564;28;19918;-69
2023/12/08 14:17:41;;;;;;;;;;;26.00;99.90;;;;;;4970856;28;19914;-70